Terminal Aerodrome Forecast
Issued by NWS Quad Cities IA IL

Home | Current Version | Previous Version | Text Only | Print | Product List | Glossary On
Versions: 1 2 3 4 5 6 7 8 9 10 11 12 13 14 15
273
FTUS43 KDVN 240520
TAFDBQ
TAF
KDBQ 240520Z 2406/2506 20009KT P6SM SKC
     FM241100 19012KT P6SM BKN250 WS012/24040KT
     FM241600 20017G26KT P6SM SCT250
     FM242300 29013KT P6SM BKN080=

USA.gov is the U.S. government's official web portal to all federal, state and local government web resources and services.